sensor_id;sensor_type;location;lat;lon;timestamp;P1;durP1;ratioP1;P2;durP2;ratioP2
69083;SDS011;56185;48.526;9.044;2023-07-22T00:01:23;3.30;;;2.03;;
69083;SDS011;56185;48.526;9.044;2023-07-22T00:03:49;4.03;;;2.27;;
69083;SDS011;56185;48.526;9.044;2023-07-22T00:06:14;4.60;;;2.15;;
69083;SDS011;56185;48.526;9.044;2023-07-22T00:08:39;3.03;;;2.13;;
69083;SDS011;56185;48.526;9.044;2023-07-22T00:11:05;4.20;;;2.03;;
69083;SDS011;56185;48.526;9.044;2023-07-22T00:13:30;4.90;;;1.95;;
69083;SDS011;56185;48.526;9.044;2023-07-22T00:15:57;2.70;;;1.83;;
69083;SDS011;56185;48.526;9.044;2023-07-22T00:18:23;5.10;;;2.13;;
69083;SDS011;56185;48.526;9.044;2023-07-22T00:20:48;3.53;;;1.90;;
69083;SDS011;56185;48.526;9.044;2023-07-22T00:23:13;2.20;;;1.60;;
69083;SDS011;56185;48.526;9.044;2023-07-22T00:25:39;3.03;;;1.90;;
69083;SDS011;56185;48.526;9.044;2023-07-22T00:28:04;3.80;;;1.70;;
69083;SDS011;56185;48.526;9.044;2023-07-22T00:30:29;2.83;;;1.90;;
69083;SDS011;56185;48.526;9.044;2023-07-22T00:32:54;4.55;;;1.85;;
69083;SDS011;56185;48.526;9.044;2023-07-22T00:35:20;4.65;;;2.10;;
69083;SDS011;56185;48.526;9.044;2023-07-22T00:37:45;3.60;;;2.00;;
69083;SDS011;56185;48.526;9.044;2023-07-22T00:40:11;2.70;;;1.90;;
69083;SDS011;56185;48.526;9.044;2023-07-22T00:42:36;2.97;;;2.10;;
69083;SDS011;56185;48.526;9.044;2023-07-22T00:45:02;3.72;;;2.00;;
69083;SDS011;56185;48.526;9.044;2023-07-22T00:47:28;4.35;;;2.08;;
69083;SDS011;56185;48.526;9.044;2023-07-22T00:49:53;3.13;;;1.70;;
69083;SDS011;56185;48.526;9.044;2023-07-22T00:52:19;2.95;;;1.92;;
69083;SDS011;56185;48.526;9.044;2023-07-22T00:54:45;2.60;;;1.63;;
69083;SDS011;56185;48.526;9.044;2023-07-22T00:57:10;2.92;;;1.90;;
69083;SDS011;56185;48.526;9.044;2023-07-22T00:59:36;2.70;;;2.03;;
69083;SDS011;56185;48.526;9.044;2023-07-22T01:02:01;3.17;;;1.88;;
69083;SDS011;56185;48.526;9.044;2023-07-22T01:04:26;3.58;;;2.00;;
69083;SDS011;56185;48.526;9.044;2023-07-22T01:06:52;2.95;;;2.10;;
69083;SDS011;56185;48.526;9.044;2023-07-22T01:09:18;3.30;;;2.03;;
69083;SDS011;56185;48.526;9.044;2023-07-22T01:11:43;3.13;;;2.00;;
69083;SDS011;56185;48.526;9.044;2023-07-22T01:14:09;2.90;;;2.00;;
69083;SDS011;56185;48.526;9.044;2023-07-22T01:16:34;3.63;;;2.30;;
69083;SDS011;56185;48.526;9.044;2023-07-22T01:19:00;2.72;;;2.03;;
69083;SDS011;56185;48.526;9.044;2023-07-22T01:21:25;4.35;;;2.17;;
69083;SDS011;56185;48.526;9.044;2023-07-22T01:23:51;3.17;;;2.00;;
69083;SDS011;56185;48.526;9.044;2023-07-22T01:26:18;3.88;;;2.03;;
69083;SDS011;56185;48.526;9.044;2023-07-22T01:28:43;5.43;;;2.00;;
69083;SDS011;56185;48.526;9.044;2023-07-22T01:31:09;3.17;;;2.25;;
69083;SDS011;56185;48.526;9.044;2023-07-22T01:33:34;3.20;;;1.92;;
69083;SDS011;56185;48.526;9.044;2023-07-22T01:36:00;3.85;;;2.45;;
69083;SDS011;56185;48.526;9.044;2023-07-22T01:38:25;4.90;;;2.10;;
69083;SDS011;56185;48.526;9.044;2023-07-22T01:40:50;3.15;;;2.25;;
69083;SDS011;56185;48.526;9.044;2023-07-22T01:43:15;3.87;;;2.13;;
69083;SDS011;56185;48.526;9.044;2023-07-22T01:45:41;3.33;;;2.10;;
69083;SDS011;56185;48.526;9.044;2023-07-22T01:48:06;3.80;;;2.30;;
69083;SDS011;56185;48.526;9.044;2023-07-22T01:50:31;4.40;;;2.10;;
69083;SDS011;56185;48.526;9.044;2023-07-22T01:52:57;4.85;;;2.08;;
69083;SDS011;56185;48.526;9.044;2023-07-22T01:55:22;3.28;;;1.90;;
69083;SDS011;56185;48.526;9.044;2023-07-22T01:57:47;2.73;;;1.93;;
69083;SDS011;56185;48.526;9.044;2023-07-22T02:00:13;2.80;;;1.92;;
69083;SDS011;56185;48.526;9.044;2023-07-22T02:02:38;2.70;;;2.10;;
69083;SDS011;56185;48.526;9.044;2023-07-22T02:05:03;3.33;;;2.00;;
69083;SDS011;56185;48.526;9.044;2023-07-22T02:07:29;3.88;;;2.10;;
69083;SDS011;56185;48.526;9.044;2023-07-22T02:09:54;7.30;;;2.00;;
69083;SDS011;56185;48.526;9.044;2023-07-22T02:12:19;3.33;;;1.92;;
69083;SDS011;56185;48.526;9.044;2023-07-22T02:14:45;8.77;;;2.30;;
69083;SDS011;56185;48.526;9.044;2023-07-22T02:17:10;3.40;;;2.23;;
69083;SDS011;56185;48.526;9.044;2023-07-22T02:19:35;3.17;;;1.90;;
69083;SDS011;56185;48.526;9.044;2023-07-22T02:22:01;4.43;;;2.33;;
69083;SDS011;56185;48.526;9.044;2023-07-22T02:24:26;3.03;;;2.20;;
69083;SDS011;56185;48.526;9.044;2023-07-22T02:26:51;2.30;;;1.87;;
69083;SDS011;56185;48.526;9.044;2023-07-22T02:29:16;3.50;;;2.17;;
69083;SDS011;56185;48.526;9.044;2023-07-22T02:31:42;4.10;;;2.10;;
69083;SDS011;56185;48.526;9.044;2023-07-22T02:34:07;3.07;;;2.00;;
69083;SDS011;56185;48.526;9.044;2023-07-22T02:36:32;5.07;;;2.07;;
69083;SDS011;56185;48.526;9.044;2023-07-22T02:38:57;3.50;;;2.27;;
69083;SDS011;56185;48.526;9.044;2023-07-22T02:41:22;4.10;;;2.00;;
69083;SDS011;56185;48.526;9.044;2023-07-22T02:43:48;4.27;;;2.23;;
69083;SDS011;56185;48.526;9.044;2023-07-22T02:46:13;4.43;;;2.53;;
69083;SDS011;56185;48.526;9.044;2023-07-22T02:48:38;3.83;;;2.30;;
69083;SDS011;56185;48.526;9.044;2023-07-22T02:51:04;4.33;;;2.37;;
69083;SDS011;56185;48.526;9.044;2023-07-22T02:53:33;2.88;;;2.05;;
69083;SDS011;56185;48.526;9.044;2023-07-22T02:55:59;3.67;;;2.30;;
69083;SDS011;56185;48.526;9.044;2023-07-22T02:58:25;3.60;;;2.17;;
69083;SDS011;56185;48.526;9.044;2023-07-22T03:00:50;5.35;;;2.38;;
69083;SDS011;56185;48.526;9.044;2023-07-22T03:03:16;3.47;;;2.03;;
69083;SDS011;56185;48.526;9.044;2023-07-22T03:05:41;3.20;;;2.00;;
69083;SDS011;56185;48.526;9.044;2023-07-22T03:08:06;5.03;;;2.37;;
69083;SDS011;56185;48.526;9.044;2023-07-22T03:10:31;3.40;;;2.10;;
69083;SDS011;56185;48.526;9.044;2023-07-22T03:12:57;6.30;;;2.50;;
69083;SDS011;56185;48.526;9.044;2023-07-22T03:15:22;3.53;;;2.07;;
69083;SDS011;56185;48.526;9.044;2023-07-22T03:17:48;2.83;;;1.98;;
69083;SDS011;56185;48.526;9.044;2023-07-22T03:20:13;3.50;;;2.25;;
69083;SDS011;56185;48.526;9.044;2023-07-22T03:22:38;4.17;;;2.33;;
69083;SDS011;56185;48.526;9.044;2023-07-22T03:25:04;3.60;;;2.10;;
69083;SDS011;56185;48.526;9.044;2023-07-22T03:27:29;3.70;;;2.25;;
69083;SDS011;56185;48.526;9.044;2023-07-22T03:29:55;3.37;;;2.20;;
69083;SDS011;56185;48.526;9.044;2023-07-22T03:32:20;3.27;;;2.40;;
69083;SDS011;56185;48.526;9.044;2023-07-22T03:34:45;4.17;;;2.40;;
69083;SDS011;56185;48.526;9.044;2023-07-22T03:37:10;3.23;;;2.20;;
69083;SDS011;56185;48.526;9.044;2023-07-22T03:39:36;4.20;;;2.15;;
69083;SDS011;56185;48.526;9.044;2023-07-22T03:42:01;3.30;;;2.30;;
69083;SDS011;56185;48.526;9.044;2023-07-22T03:44:26;4.60;;;2.40;;
69083;SDS011;56185;48.526;9.044;2023-07-22T03:46:51;3.67;;;2.50;;
69083;SDS011;56185;48.526;9.044;2023-07-22T03:49:17;4.30;;;2.20;;
69083;SDS011;56185;48.526;9.044;2023-07-22T03:51:42;3.67;;;2.10;;
69083;SDS011;56185;48.526;9.044;2023-07-22T03:54:07;3.50;;;1.90;;
69083;SDS011;56185;48.526;9.044;2023-07-22T03:56:32;3.03;;;2.23;;
69083;SDS011;56185;48.526;9.044;2023-07-22T03:58:58;4.22;;;2.47;;
69083;SDS011;56185;48.526;9.044;2023-07-22T04:01:23;5.78;;;2.35;;
69083;SDS011;56185;48.526;9.044;2023-07-22T04:03:48;3.00;;;2.10;;
69083;SDS011;56185;48.526;9.044;2023-07-22T04:06:14;5.03;;;2.50;;
69083;SDS011;56185;48.526;9.044;2023-07-22T04:08:39;3.93;;;2.20;;
69083;SDS011;56185;48.526;9.044;2023-07-22T04:11:04;5.40;;;2.07;;
69083;SDS011;56185;48.526;9.044;2023-07-22T04:13:29;2.87;;;2.10;;
69083;SDS011;56185;48.526;9.044;2023-07-22T04:15:54;4.00;;;2.33;;
69083;SDS011;56185;48.526;9.044;2023-07-22T04:18:20;4.17;;;2.43;;
69083;SDS011;56185;48.526;9.044;2023-07-22T04:20:46;3.92;;;2.10;;
69083;SDS011;56185;48.526;9.044;2023-07-22T04:23:12;3.72;;;2.15;;
69083;SDS011;56185;48.526;9.044;2023-07-22T04:25:43;4.25;;;2.30;;
69083;SDS011;56185;48.526;9.044;2023-07-22T04:28:09;3.63;;;2.25;;
69083;SDS011;56185;48.526;9.044;2023-07-22T04:30:35;3.83;;;2.33;;
69083;SDS011;56185;48.526;9.044;2023-07-22T04:33:01;4.35;;;2.10;;
69083;SDS011;56185;48.526;9.044;2023-07-22T04:35:26;3.60;;;2.20;;
69083;SDS011;56185;48.526;9.044;2023-07-22T04:37:51;3.37;;;2.13;;
69083;SDS011;56185;48.526;9.044;2023-07-22T04:40:16;3.30;;;2.20;;
69083;SDS011;56185;48.526;9.044;2023-07-22T04:42:42;5.70;;;2.85;;
69083;SDS011;56185;48.526;9.044;2023-07-22T04:45:08;4.45;;;2.17;;
69083;SDS011;56185;48.526;9.044;2023-07-22T04:47:34;4.65;;;2.35;;
69083;SDS011;56185;48.526;9.044;2023-07-22T04:49:59;4.23;;;2.40;;
69083;SDS011;56185;48.526;9.044;2023-07-22T04:52:24;4.27;;;2.50;;
69083;SDS011;56185;48.526;9.044;2023-07-22T04:54:50;3.43;;;2.40;;
69083;SDS011;56185;48.526;9.044;2023-07-22T04:57:15;3.33;;;2.20;;
69083;SDS011;56185;48.526;9.044;2023-07-22T04:59:40;3.85;;;2.30;;
69083;SDS011;56185;48.526;9.044;2023-07-22T05:02:06;4.13;;;2.40;;
69083;SDS011;56185;48.526;9.044;2023-07-22T05:04:31;4.03;;;2.70;;
69083;SDS011;56185;48.526;9.044;2023-07-22T05:06:56;3.65;;;2.25;;
69083;SDS011;56185;48.526;9.044;2023-07-22T05:09:21;6.03;;;2.63;;
69083;SDS011;56185;48.526;9.044;2023-07-22T05:11:47;4.95;;;2.53;;
69083;SDS011;56185;48.526;9.044;2023-07-22T05:14:12;5.00;;;2.77;;
69083;SDS011;56185;48.526;9.044;2023-07-22T05:16:37;7.13;;;3.13;;
69083;SDS011;56185;48.526;9.044;2023-07-22T05:19:02;6.40;;;3.10;;
69083;SDS011;56185;48.526;9.044;2023-07-22T05:21:28;4.32;;;2.63;;
69083;SDS011;56185;48.526;9.044;2023-07-22T05:23:53;4.20;;;2.50;;
69083;SDS011;56185;48.526;9.044;2023-07-22T05:26:18;7.50;;;2.70;;
69083;SDS011;56185;48.526;9.044;2023-07-22T05:28:44;5.77;;;2.80;;
69083;SDS011;56185;48.526;9.044;2023-07-22T05:31:09;5.47;;;3.00;;
69083;SDS011;56185;48.526;9.044;2023-07-22T05:33:34;6.75;;;2.72;;
69083;SDS011;56185;48.526;9.044;2023-07-22T05:35:59;4.75;;;2.95;;
69083;SDS011;56185;48.526;9.044;2023-07-22T05:38:25;5.53;;;3.00;;
69083;SDS011;56185;48.526;9.044;2023-07-22T05:40:51;4.72;;;2.80;;
69083;SDS011;56185;48.526;9.044;2023-07-22T05:43:17;5.07;;;2.90;;
69083;SDS011;56185;48.526;9.044;2023-07-22T05:45:43;5.30;;;3.20;;
69083;SDS011;56185;48.526;9.044;2023-07-22T05:48:08;5.80;;;3.20;;
69083;SDS011;56185;48.526;9.044;2023-07-22T05:50:33;5.40;;;2.63;;
69083;SDS011;56185;48.526;9.044;2023-07-22T05:52:58;7.73;;;3.10;;
69083;SDS011;56185;48.526;9.044;2023-07-22T05:55:24;6.03;;;3.40;;
69083;SDS011;56185;48.526;9.044;2023-07-22T05:57:49;5.03;;;3.15;;
69083;SDS011;56185;48.526;9.044;2023-07-22T06:00:14;3.80;;;2.70;;
69083;SDS011;56185;48.526;9.044;2023-07-22T06:02:40;6.07;;;2.90;;
69083;SDS011;56185;48.526;9.044;2023-07-22T06:05:05;4.10;;;2.72;;
69083;SDS011;56185;48.526;9.044;2023-07-22T06:07:30;5.13;;;2.70;;
69083;SDS011;56185;48.526;9.044;2023-07-22T06:09:56;3.70;;;2.50;;
69083;SDS011;56185;48.526;9.044;2023-07-22T06:12:21;4.70;;;2.80;;
69083;SDS011;56185;48.526;9.044;2023-07-22T06:14:46;4.47;;;2.77;;
69083;SDS011;56185;48.526;9.044;2023-07-22T06:17:11;3.53;;;2.30;;
69083;SDS011;56185;48.526;9.044;2023-07-22T06:19:37;4.43;;;2.60;;
69083;SDS011;56185;48.526;9.044;2023-07-22T06:22:02;6.27;;;2.70;;
69083;SDS011;56185;48.526;9.044;2023-07-22T06:24:27;4.05;;;2.67;;
69083;SDS011;56185;48.526;9.044;2023-07-22T06:26:52;5.07;;;2.70;;
69083;SDS011;56185;48.526;9.044;2023-07-22T06:29:17;3.47;;;2.37;;
69083;SDS011;56185;48.526;9.044;2023-07-22T06:31:43;3.70;;;2.53;;
69083;SDS011;56185;48.526;9.044;2023-07-22T06:34:08;4.00;;;2.53;;
69083;SDS011;56185;48.526;9.044;2023-07-22T06:36:40;4.88;;;2.55;;
69083;SDS011;56185;48.526;9.044;2023-07-22T06:39:05;4.33;;;2.80;;
69083;SDS011;56185;48.526;9.044;2023-07-22T06:41:30;4.20;;;2.50;;
69083;SDS011;56185;48.526;9.044;2023-07-22T06:43:55;3.13;;;2.20;;
69083;SDS011;56185;48.526;9.044;2023-07-22T06:46:21;4.60;;;2.40;;
69083;SDS011;56185;48.526;9.044;2023-07-22T06:48:46;5.50;;;2.40;;
69083;SDS011;56185;48.526;9.044;2023-07-22T06:51:12;4.93;;;2.60;;
69083;SDS011;56185;48.526;9.044;2023-07-22T06:53:37;3.25;;;2.30;;
69083;SDS011;56185;48.526;9.044;2023-07-22T06:56:02;3.43;;;2.00;;
69083;SDS011;56185;48.526;9.044;2023-07-22T06:58:28;2.88;;;1.92;;
69083;SDS011;56185;48.526;9.044;2023-07-22T07:00:53;8.47;;;2.27;;
69083;SDS011;56185;48.526;9.044;2023-07-22T07:03:19;3.60;;;2.22;;
69083;SDS011;56185;48.526;9.044;2023-07-22T07:05:44;3.30;;;2.00;;
69083;SDS011;56185;48.526;9.044;2023-07-22T07:08:17;3.80;;;1.98;;
69083;SDS011;56185;48.526;9.044;2023-07-22T07:10:42;3.13;;;1.70;;
69083;SDS011;56185;48.526;9.044;2023-07-22T07:13:07;4.37;;;2.10;;
69083;SDS011;56185;48.526;9.044;2023-07-22T07:15:32;5.13;;;2.00;;
69083;SDS011;56185;48.526;9.044;2023-07-22T07:17:57;3.33;;;1.90;;
69083;SDS011;56185;48.526;9.044;2023-07-22T07:20:23;3.17;;;1.90;;
69083;SDS011;56185;48.526;9.044;2023-07-22T07:22:48;3.95;;;2.22;;
69083;SDS011;56185;48.526;9.044;2023-07-22T07:25:13;3.07;;;1.90;;
69083;SDS011;56185;48.526;9.044;2023-07-22T07:27:39;2.63;;;1.80;;
69083;SDS011;56185;48.526;9.044;2023-07-22T07:30:04;3.65;;;2.15;;
69083;SDS011;56185;48.526;9.044;2023-07-22T07:32:30;3.92;;;1.98;;
69083;SDS011;56185;48.526;9.044;2023-07-22T07:34:55;3.83;;;1.60;;
69083;SDS011;56185;48.526;9.044;2023-07-22T07:37:22;3.53;;;1.90;;
69083;SDS011;56185;48.526;9.044;2023-07-22T07:39:47;3.08;;;1.80;;
69083;SDS011;56185;48.526;9.044;2023-07-22T07:42:12;3.08;;;2.05;;
69083;SDS011;56185;48.526;9.044;2023-07-22T07:44:38;2.73;;;1.90;;
69083;SDS011;56185;48.526;9.044;2023-07-22T07:47:03;4.75;;;1.90;;
69083;SDS011;56185;48.526;9.044;2023-07-22T07:49:28;3.53;;;1.77;;
69083;SDS011;56185;48.526;9.044;2023-07-22T07:51:54;3.33;;;2.20;;
69083;SDS011;56185;48.526;9.044;2023-07-22T07:54:19;3.33;;;1.90;;
69083;SDS011;56185;48.526;9.044;2023-07-22T07:56:44;2.70;;;1.73;;
69083;SDS011;56185;48.526;9.044;2023-07-22T07:59:09;3.93;;;1.87;;
69083;SDS011;56185;48.526;9.044;2023-07-22T08:01:35;2.87;;;1.90;;
69083;SDS011;56185;48.526;9.044;2023-07-22T08:04:00;2.90;;;1.80;;
69083;SDS011;56185;48.526;9.044;2023-07-22T08:06:25;3.80;;;1.90;;
69083;SDS011;56185;48.526;9.044;2023-07-22T08:08:50;5.27;;;1.93;;
69083;SDS011;56185;48.526;9.044;2023-07-22T08:11:16;3.50;;;1.93;;
69083;SDS011;56185;48.526;9.044;2023-07-22T08:13:41;3.55;;;1.88;;
69083;SDS011;56185;48.526;9.044;2023-07-22T08:16:09;2.92;;;1.75;;
69083;SDS011;56185;48.526;9.044;2023-07-22T08:18:35;2.88;;;1.90;;
69083;SDS011;56185;48.526;9.044;2023-07-22T08:21:02;2.95;;;1.85;;
69083;SDS011;56185;48.526;9.044;2023-07-22T08:23:28;2.60;;;1.70;;
69083;SDS011;56185;48.526;9.044;2023-07-22T08:25:54;4.68;;;2.10;;
69083;SDS011;56185;48.526;9.044;2023-07-22T08:28:19;3.30;;;1.60;;
69083;SDS011;56185;48.526;9.044;2023-07-22T08:30:45;2.50;;;1.50;;
69083;SDS011;56185;48.526;9.044;2023-07-22T08:33:10;2.95;;;1.80;;
69083;SDS011;56185;48.526;9.044;2023-07-22T08:35:36;3.55;;;1.40;;
69083;SDS011;56185;48.526;9.044;2023-07-22T08:38:01;2.27;;;1.60;;
69083;SDS011;56185;48.526;9.044;2023-07-22T08:40:32;2.58;;;1.60;;
69083;SDS011;56185;48.526;9.044;2023-07-22T08:42:58;1.95;;;1.50;;
69083;SDS011;56185;48.526;9.044;2023-07-22T08:45:24;3.25;;;1.50;;
69083;SDS011;56185;48.526;9.044;2023-07-22T08:47:54;3.67;;;1.55;;
69083;SDS011;56185;48.526;9.044;2023-07-22T08:50:22;2.60;;;1.45;;
69083;SDS011;56185;48.526;9.044;2023-07-22T08:52:54;2.42;;;1.40;;
69083;SDS011;56185;48.526;9.044;2023-07-22T08:55:19;2.05;;;1.35;;
69083;SDS011;56185;48.526;9.044;2023-07-22T08:57:45;3.97;;;1.50;;
69083;SDS011;56185;48.526;9.044;2023-07-22T09:00:11;4.20;;;1.60;;
69083;SDS011;56185;48.526;9.044;2023-07-22T09:02:37;2.20;;;1.20;;
69083;SDS011;56185;48.526;9.044;2023-07-22T09:05:03;1.92;;;1.38;;
69083;SDS011;56185;48.526;9.044;2023-07-22T09:07:28;2.78;;;1.27;;
69083;SDS011;56185;48.526;9.044;2023-07-22T09:09:54;2.20;;;1.30;;
69083;SDS011;56185;48.526;9.044;2023-07-22T09:12:22;2.80;;;1.20;;
69083;SDS011;56185;48.526;9.044;2023-07-22T09:14:48;1.92;;;1.30;;
69083;SDS011;56185;48.526;9.044;2023-07-22T09:17:14;3.88;;;1.27;;
69083;SDS011;56185;48.526;9.044;2023-07-22T09:19:40;1.80;;;1.03;;
69083;SDS011;56185;48.526;9.044;2023-07-22T09:22:05;1.70;;;1.17;;
69083;SDS011;56185;48.526;9.044;2023-07-22T09:24:32;2.28;;;1.20;;
69083;SDS011;56185;48.526;9.044;2023-07-22T09:26:57;4.30;;;1.30;;
69083;SDS011;56185;48.526;9.044;2023-07-22T09:29:33;3.00;;;1.20;;
69083;SDS011;56185;48.526;9.044;2023-07-22T09:31:59;2.70;;;1.20;;
69083;SDS011;56185;48.526;9.044;2023-07-22T09:34:24;1.80;;;1.00;;
69083;SDS011;56185;48.526;9.044;2023-07-22T09:39:15;1.90;;;1.30;;
69083;SDS011;56185;48.526;9.044;2023-07-22T09:41:41;2.47;;;1.10;;
69083;SDS011;56185;48.526;9.044;2023-07-22T09:44:08;1.75;;;1.10;;
69083;SDS011;56185;48.526;9.044;2023-07-22T09:46:34;2.97;;;0.95;;
69083;SDS011;56185;48.526;9.044;2023-07-22T09:49:02;1.97;;;1.20;;
69083;SDS011;56185;48.526;9.044;2023-07-22T09:51:32;1.60;;;1.10;;
69083;SDS011;56185;48.526;9.044;2023-07-22T09:54:02;2.23;;;1.20;;
69083;SDS011;56185;48.526;9.044;2023-07-22T09:56:28;2.55;;;1.08;;
69083;SDS011;56185;48.526;9.044;2023-07-22T09:58:53;3.25;;;1.30;;
69083;SDS011;56185;48.526;9.044;2023-07-22T10:01:20;2.55;;;1.25;;
69083;SDS011;56185;48.526;9.044;2023-07-22T10:03:49;2.88;;;1.20;;
69083;SDS011;56185;48.526;9.044;2023-07-22T10:06:18;2.22;;;1.27;;
69083;SDS011;56185;48.526;9.044;2023-07-22T10:08:44;1.73;;;1.10;;
69083;SDS011;56185;48.526;9.044;2023-07-22T10:11:10;3.33;;;1.25;;
69083;SDS011;56185;48.526;9.044;2023-07-22T10:13:37;2.22;;;1.10;;
69083;SDS011;56185;48.526;9.044;2023-07-22T10:16:03;3.75;;;1.50;;
69083;SDS011;56185;48.526;9.044;2023-07-22T10:18:30;3.25;;;1.20;;
69083;SDS011;56185;48.526;9.044;2023-07-22T10:20:57;2.13;;;1.30;;
69083;SDS011;56185;48.526;9.044;2023-07-22T10:23:22;2.05;;;1.30;;
69083;SDS011;56185;48.526;9.044;2023-07-22T10:25:50;3.63;;;1.50;;
69083;SDS011;56185;48.526;9.044;2023-07-22T10:28:17;4.07;;;1.50;;
69083;SDS011;56185;48.526;9.044;2023-07-22T10:30:44;2.42;;;1.30;;
69083;SDS011;56185;48.526;9.044;2023-07-22T10:33:10;3.65;;;1.40;;
69083;SDS011;56185;48.526;9.044;2023-07-22T10:35:42;3.05;;;1.20;;
69083;SDS011;56185;48.526;9.044;2023-07-22T10:38:09;3.78;;;1.50;;
69083;SDS011;56185;48.526;9.044;2023-07-22T10:40:52;4.63;;;1.60;;
69083;SDS011;56185;48.526;9.044;2023-07-22T10:43:24;2.60;;;1.42;;
69083;SDS011;56185;48.526;9.044;2023-07-22T10:45:55;4.85;;;1.73;;
69083;SDS011;56185;48.526;9.044;2023-07-22T10:48:36;3.33;;;1.55;;
69083;SDS011;56185;48.526;9.044;2023-07-22T10:51:12;2.75;;;1.40;;
69083;SDS011;56185;48.526;9.044;2023-07-22T10:53:42;3.05;;;1.38;;
69083;SDS011;56185;48.526;9.044;2023-07-22T11:12:15;3.65;;;1.77;;
69083;SDS011;56185;48.526;9.044;2023-07-22T11:14:46;2.72;;;1.60;;
69083;SDS011;56185;48.526;9.044;2023-07-22T11:17:15;2.60;;;1.50;;
69083;SDS011;56185;48.526;9.044;2023-07-22T11:19:42;3.30;;;1.55;;
69083;SDS011;56185;48.526;9.044;2023-07-22T11:22:08;2.45;;;1.65;;
69083;SDS011;56185;48.526;9.044;2023-07-22T11:24:33;1.90;;;1.48;;
69083;SDS011;56185;48.526;9.044;2023-07-22T11:26:59;2.10;;;1.48;;
69083;SDS011;56185;48.526;9.044;2023-07-22T11:29:27;2.20;;;1.45;;
69083;SDS011;56185;48.526;9.044;2023-07-22T11:31:52;4.00;;;1.50;;
69083;SDS011;56185;48.526;9.044;2023-07-22T11:34:22;2.60;;;1.50;;
69083;SDS011;56185;48.526;9.044;2023-07-22T11:36:48;2.88;;;1.50;;
69083;SDS011;56185;48.526;9.044;2023-07-22T11:39:15;2.00;;;1.40;;
69083;SDS011;56185;48.526;9.044;2023-07-22T11:41:45;2.20;;;1.55;;
69083;SDS011;56185;48.526;9.044;2023-07-22T11:44:12;2.58;;;1.45;;
69083;SDS011;56185;48.526;9.044;2023-07-22T11:49:12;3.75;;;1.40;;
69083;SDS011;56185;48.526;9.044;2023-07-22T11:51:41;2.50;;;1.40;;
69083;SDS011;56185;48.526;9.044;2023-07-22T11:54:07;2.58;;;1.45;;
69083;SDS011;56185;48.526;9.044;2023-07-22T11:56:33;2.55;;;1.50;;
69083;SDS011;56185;48.526;9.044;2023-07-22T11:58:58;5.00;;;1.70;;
69083;SDS011;56185;48.526;9.044;2023-07-22T12:01:28;2.70;;;1.60;;
69083;SDS011;56185;48.526;9.044;2023-07-22T12:03:57;3.53;;;1.60;;
69083;SDS011;56185;48.526;9.044;2023-07-22T12:06:24;2.20;;;1.33;;
69083;SDS011;56185;48.526;9.044;2023-07-22T12:08:51;2.83;;;1.52;;
69083;SDS011;56185;48.526;9.044;2023-07-22T12:11:20;2.55;;;1.42;;
69083;SDS011;56185;48.526;9.044;2023-07-22T12:13:48;3.10;;;1.50;;
69083;SDS011;56185;48.526;9.044;2023-07-22T12:16:28;2.88;;;1.50;;
69083;SDS011;56185;48.526;9.044;2023-07-22T12:18:54;2.53;;;1.50;;
69083;SDS011;56185;48.526;9.044;2023-07-22T12:21:20;3.63;;;1.58;;
69083;SDS011;56185;48.526;9.044;2023-07-22T12:23:45;3.33;;;1.63;;
69083;SDS011;56185;48.526;9.044;2023-07-22T12:26:10;2.58;;;1.50;;
69083;SDS011;56185;48.526;9.044;2023-07-22T12:28:36;2.43;;;1.60;;
69083;SDS011;56185;48.526;9.044;2023-07-22T12:31:01;2.63;;;1.50;;
69083;SDS011;56185;48.526;9.044;2023-07-22T12:33:26;4.57;;;1.50;;
69083;SDS011;56185;48.526;9.044;2023-07-22T12:35:55;2.80;;;1.65;;
69083;SDS011;56185;48.526;9.044;2023-07-22T12:38:22;1.85;;;1.40;;
69083;SDS011;56185;48.526;9.044;2023-07-22T12:40:47;4.13;;;1.40;;
69083;SDS011;56185;48.526;9.044;2023-07-22T12:43:13;1.85;;;1.30;;
69083;SDS011;56185;48.526;9.044;2023-07-22T12:45:39;3.15;;;1.50;;
69083;SDS011;56185;48.526;9.044;2023-07-22T12:48:05;3.22;;;1.60;;
69083;SDS011;56185;48.526;9.044;2023-07-22T12:50:38;2.20;;;1.60;;
69083;SDS011;56185;48.526;9.044;2023-07-22T12:53:03;2.25;;;1.50;;
69083;SDS011;56185;48.526;9.044;2023-07-22T12:55:29;2.80;;;1.65;;
69083;SDS011;56185;48.526;9.044;2023-07-22T12:57:54;2.33;;;1.40;;
69083;SDS011;56185;48.526;9.044;2023-07-22T13:00:19;2.65;;;1.40;;
69083;SDS011;56185;48.526;9.044;2023-07-22T13:02:45;4.60;;;1.60;;
69083;SDS011;56185;48.526;9.044;2023-07-22T13:05:10;2.20;;;1.60;;
69083;SDS011;56185;48.526;9.044;2023-07-22T13:07:35;2.97;;;1.60;;
69083;SDS011;56185;48.526;9.044;2023-07-22T13:10:01;2.60;;;1.80;;
69083;SDS011;56185;48.526;9.044;2023-07-22T13:12:27;3.72;;;1.90;;
69083;SDS011;56185;48.526;9.044;2023-07-22T13:14:52;2.93;;;1.77;;
69083;SDS011;56185;48.526;9.044;2023-07-22T13:17:17;3.23;;;1.70;;
69083;SDS011;56185;48.526;9.044;2023-07-22T13:19:42;3.37;;;1.70;;
69083;SDS011;56185;48.526;9.044;2023-07-22T13:22:08;2.77;;;1.90;;
69083;SDS011;56185;48.526;9.044;2023-07-22T13:24:33;2.60;;;1.70;;
69083;SDS011;56185;48.526;9.044;2023-07-22T13:26:58;2.90;;;2.00;;
69083;SDS011;56185;48.526;9.044;2023-07-22T13:29:27;2.30;;;1.70;;
69083;SDS011;56185;48.526;9.044;2023-07-22T13:31:52;2.93;;;1.80;;
69083;SDS011;56185;48.526;9.044;2023-07-22T13:34:23;3.27;;;2.10;;
69083;SDS011;56185;48.526;9.044;2023-07-22T13:36:48;2.05;;;1.50;;
69083;SDS011;56185;48.526;9.044;2023-07-22T13:39:14;2.57;;;1.73;;
69083;SDS011;56185;48.526;9.044;2023-07-22T13:41:39;4.13;;;2.03;;
69083;SDS011;56185;48.526;9.044;2023-07-22T13:44:04;3.10;;;1.67;;
69083;SDS011;56185;48.526;9.044;2023-07-22T13:46:29;3.47;;;1.90;;
69083;SDS011;56185;48.526;9.044;2023-07-22T13:48:55;3.58;;;1.70;;
69083;SDS011;56185;48.526;9.044;2023-07-22T13:51:20;2.53;;;1.83;;
69083;SDS011;56185;48.526;9.044;2023-07-22T13:53:45;4.63;;;1.90;;
69083;SDS011;56185;48.526;9.044;2023-07-22T13:56:11;4.03;;;1.93;;
69083;SDS011;56185;48.526;9.044;2023-07-22T13:58:36;2.93;;;1.80;;
69083;SDS011;56185;48.526;9.044;2023-07-22T14:01:01;4.87;;;1.87;;
69083;SDS011;56185;48.526;9.044;2023-07-22T14:03:26;5.32;;;2.22;;
69083;SDS011;56185;48.526;9.044;2023-07-22T14:05:52;3.43;;;2.10;;
69083;SDS011;56185;48.526;9.044;2023-07-22T14:08:17;3.27;;;2.10;;
69083;SDS011;56185;48.526;9.044;2023-07-22T14:10:42;4.63;;;1.90;;
69083;SDS011;56185;48.526;9.044;2023-07-22T14:13:07;3.10;;;1.95;;
69083;SDS011;56185;48.526;9.044;2023-07-22T14:15:33;2.83;;;1.70;;
69083;SDS011;56185;48.526;9.044;2023-07-22T14:17:58;3.67;;;1.98;;
69083;SDS011;56185;48.526;9.044;2023-07-22T14:20:23;3.93;;;2.30;;
69083;SDS011;56185;48.526;9.044;2023-07-22T14:22:48;3.70;;;2.30;;
69083;SDS011;56185;48.526;9.044;2023-07-22T14:25:14;3.87;;;2.20;;
69083;SDS011;56185;48.526;9.044;2023-07-22T14:27:39;4.43;;;2.10;;
69083;SDS011;56185;48.526;9.044;2023-07-22T14:30:05;4.88;;;2.20;;
69083;SDS011;56185;48.526;9.044;2023-07-22T14:32:31;5.55;;;2.33;;
69083;SDS011;56185;48.526;9.044;2023-07-22T14:34:56;4.07;;;2.10;;
69083;SDS011;56185;48.526;9.044;2023-07-22T14:37:21;3.20;;;2.03;;
69083;SDS011;56185;48.526;9.044;2023-07-22T14:39:47;2.93;;;1.87;;
69083;SDS011;56185;48.526;9.044;2023-07-22T14:42:12;3.33;;;1.90;;
69083;SDS011;56185;48.526;9.044;2023-07-22T14:44:37;2.97;;;1.98;;
69083;SDS011;56185;48.526;9.044;2023-07-22T14:47:02;2.97;;;1.90;;
69083;SDS011;56185;48.526;9.044;2023-07-22T14:49:28;3.53;;;2.20;;
69083;SDS011;56185;48.526;9.044;2023-07-22T14:51:53;5.32;;;2.00;;
69083;SDS011;56185;48.526;9.044;2023-07-22T14:54:18;3.47;;;2.00;;
69083;SDS011;56185;48.526;9.044;2023-07-22T14:56:44;3.23;;;1.97;;
69083;SDS011;56185;48.526;9.044;2023-07-22T14:59:09;3.23;;;2.03;;
69083;SDS011;56185;48.526;9.044;2023-07-22T15:01:38;3.37;;;2.10;;